Time;durP1;ratioP1;P1;durP2;ratioP2;P2;SDS_P1;SDS_P2;PMS_P1;PMS_P2;Temp;Humidity;BMP_temperature;BMP_pressure;BME280_temperature;BME280_humidity;BME280_pressure;Samples;Min_cycle;Max_cycle;Signal;HPM_P1;HPM_P2
2021/10/03 00:00:38;;;;;;;4.10;3.70;;;;;;;;;;5102760;27;20878;-79
2021/10/03 00:03:10;;;;;;;3.40;2.80;;;;;;;;;;5113067;28;20823;-80
2021/10/03 00:05:38;;;;;;;3.30;3.00;;;;;;;;;;5119157;28;20450;-81
2021/10/03 00:08:07;;;;;;;3.80;3.13;;;;;;;;;;5113974;27;20416;-80
2021/10/03 00:10:35;;;;;;;4.20;3.17;;;;;;;;;;5106309;28;20484;-80
2021/10/03 00:13:04;;;;;;;3.50;3.20;;;;;;;;;;5115508;28;20466;-79
2021/10/03 00:15:32;;;;;;;3.67;2.97;;;;;;;;;;5114379;27;20652;-80
2021/10/03 00:17:59;;;;;;;6.23;3.37;;;;;;;;;;5107417;27;20453;-80
2021/10/03 00:20:26;;;;;;;2.80;2.60;;;;;;;;;;5109957;28;20443;-80
2021/10/03 00:22:53;;;;;;;4.50;3.10;;;;;;;;;;5105864;28;20481;-79
2021/10/03 00:25:21;;;;;;;3.60;3.30;;;;;;;;;;5097589;28;20486;-80
2021/10/03 00:27:50;;;;;;;4.30;3.20;;;;;;;;;;5104982;28;20535;-80
2021/10/03 00:30:17;;;;;;;4.80;3.17;;;;;;;;;;5113703;28;20443;-80
2021/10/03 00:32:45;;;;;;;6.50;3.13;;;;;;;;;;5106548;27;21000;-82
2021/10/03 00:35:12;;;;;;;3.57;3.27;;;;;;;;;;5117224;27;20762;-83
2021/10/03 00:37:39;;;;;;;5.13;3.50;;;;;;;;;;5109302;28;20954;-81
2021/10/03 00:40:07;;;;;;;3.40;3.10;;;;;;;;;;5101044;28;20458;-80
2021/10/03 00:42:35;;;;;;;5.43;3.53;;;;;;;;;;5102473;28;20470;-79
2021/10/03 00:45:04;;;;;;;2.90;2.60;;;;;;;;;;5111341;28;20426;-79
2021/10/03 00:47:31;;;;;;;4.00;3.20;;;;;;;;;;5102650;28;20808;-81
2021/10/03 00:49:58;;;;;;;3.30;3.00;;;;;;;;;;5105099;28;20457;-80
2021/10/03 00:52:25;;;;;;;5.50;2.87;;;;;;;;;;5116337;28;20453;-82
2021/10/03 00:54:53;;;;;;;3.93;2.90;;;;;;;;;;5114758;27;20425;-81
2021/10/03 00:57:20;;;;;;;3.93;2.77;;;;;;;;;;5104235;28;20855;-80
2021/10/03 00:59:47;;;;;;;4.27;3.10;;;;;;;;;;5111013;28;20489;-81
2021/10/03 01:02:16;;;;;;;3.33;2.97;;;;;;;;;;5101345;28;20448;-80
2021/10/03 01:04:43;;;;;;;2.50;2.30;;;;;;;;;;5100374;28;20453;-80
2021/10/03 01:07:10;;;;;;;4.07;2.93;;;;;;;;;;5103749;28;20918;-82
2021/10/03 01:09:37;;;;;;;2.70;2.40;;;;;;;;;;5114189;27;20453;-79
2021/10/03 01:12:05;;;;;;;3.43;3.13;;;;;;;;;;5108414;28;20479;-80
2021/10/03 01:14:32;;;;;;;2.93;2.60;;;;;;;;;;5116240;28;20930;-82
2021/10/03 01:16:59;;;;;;;3.27;2.80;;;;;;;;;;5115921;27;20511;-80
2021/10/03 01:19:28;;;;;;;4.03;2.53;;;;;;;;;;5131602;27;20954;-80
2021/10/03 01:21:56;;;;;;;3.10;2.70;;;;;;;;;;5129054;27;20462;-80
2021/10/03 01:24:24;;;;;;;2.80;2.43;;;;;;;;;;5114988;28;20446;-81
2021/10/03 01:26:51;;;;;;;2.60;2.40;;;;;;;;;;5114890;27;20464;-80
2021/10/03 01:29:18;;;;;;;3.60;2.73;;;;;;;;;;5106166;27;20957;-80
2021/10/03 01:31:45;;;;;;;4.57;3.10;;;;;;;;;;5116837;28;20440;-80
2021/10/03 01:34:12;;;;;;;2.43;2.23;;;;;;;;;;5114320;28;20462;-79
2021/10/03 01:36:39;;;;;;;2.83;2.30;;;;;;;;;;5106997;27;20494;-79
2021/10/03 01:39:10;;;;;;;4.60;2.50;;;;;;;;;;5116273;27;20428;-80
2021/10/03 01:41:38;;;;;;;3.60;2.73;;;;;;;;;;5133758;27;20445;-80
2021/10/03 01:44:05;;;;;;;3.10;2.73;;;;;;;;;;5120462;27;20972;-80
2021/10/03 01:46:32;;;;;;;3.77;3.07;;;;;;;;;;5107564;27;20452;-79
2021/10/03 01:48:59;;;;;;;3.53;2.60;;;;;;;;;;5134132;27;20427;-79
2021/10/03 01:51:29;;;;;;;3.10;2.60;;;;;;;;;;5116483;27;20798;-79
2021/10/03 01:53:58;;;;;;;3.23;2.93;;;;;;;;;;5119999;27;20777;-77
2021/10/03 01:56:28;;;;;;;3.53;2.73;;;;;;;;;;5113340;28;20561;-78
2021/10/03 01:59:17;;;;;;;3.73;2.70;;;;;;;;;;5103665;27;20454;-79
2021/10/03 02:01:45;;;;;;;3.30;2.60;;;;;;;;;;5079692;28;20463;-78
2021/10/03 02:04:15;;;;;;;3.10;2.73;;;;;;;;;;5079127;28;20759;-79
2021/10/03 02:06:43;;;;;;;2.63;2.40;;;;;;;;;;5058282;28;20440;-80
2021/10/03 02:09:11;;;;;;;3.70;2.77;;;;;;;;;;5075902;28;20426;-79
2021/10/03 02:11:41;;;;;;;3.77;2.80;;;;;;;;;;5087407;28;20463;-79
2021/10/03 02:14:09;;;;;;;4.10;2.90;;;;;;;;;;5080501;28;20823;-81
2021/10/03 02:16:36;;;;;;;2.43;2.20;;;;;;;;;;5073781;28;20490;-79
2021/10/03 02:19:03;;;;;;;3.07;2.77;;;;;;;;;;5088047;28;20795;-79
2021/10/03 02:21:31;;;;;;;3.00;2.80;;;;;;;;;;5114416;28;20584;-80
2021/10/03 02:23:58;;;;;;;3.87;2.67;;;;;;;;;;5112231;28;20454;-79
2021/10/03 02:26:25;;;;;;;3.17;2.87;;;;;;;;;;5104683;27;20462;-77
2021/10/03 02:28:54;;;;;;;5.20;2.83;;;;;;;;;;5116497;27;20770;-80
2021/10/03 02:31:21;;;;;;;6.40;2.90;;;;;;;;;;5119758;27;20428;-79
2021/10/03 02:33:49;;;;;;;3.97;3.23;;;;;;;;;;5111515;27;20482;-81
2021/10/03 02:36:17;;;;;;;3.80;2.93;;;;;;;;;;5111823;28;20463;-79
2021/10/03 02:38:45;;;;;;;3.43;2.93;;;;;;;;;;5115613;27;20453;-80
2021/10/03 02:41:13;;;;;;;3.70;3.30;;;;;;;;;;5125030;27;20469;-79
2021/10/03 02:43:44;;;;;;;3.30;3.00;;;;;;;;;;5112675;28;20484;-79
2021/10/03 02:46:13;;;;;;;4.30;3.20;;;;;;;;;;5113448;28;20762;-78
2021/10/03 02:48:41;;;;;;;4.50;2.83;;;;;;;;;;5109216;27;20428;-79
2021/10/03 02:51:08;;;;;;;4.40;3.23;;;;;;;;;;5117577;27;20405;-79
2021/10/03 02:53:35;;;;;;;6.17;3.40;;;;;;;;;;5115580;27;20473;-79
2021/10/03 02:56:02;;;;;;;3.63;3.30;;;;;;;;;;5131638;27;20468;-79
2021/10/03 02:58:30;;;;;;;3.97;3.27;;;;;;;;;;5133114;27;20765;-79
2021/10/03 03:00:57;;;;;;;3.90;3.53;;;;;;;;;;5101416;27;20435;-78
2021/10/03 03:03:25;;;;;;;3.90;3.50;;;;;;;;;;5105864;27;20968;-80
2021/10/03 03:05:52;;;;;;;5.40;3.50;;;;;;;;;;5113833;27;20416;-79
2021/10/03 03:08:20;;;;;;;5.20;3.53;;;;;;;;;;5115418;27;21736;-80
2021/10/03 03:10:47;;;;;;;4.27;3.03;;;;;;;;;;5101989;27;20428;-79
2021/10/03 03:13:14;;;;;;;4.13;3.73;;;;;;;;;;5104374;27;20493;-80
2021/10/03 03:15:41;;;;;;;3.97;3.60;;;;;;;;;;5101462;27;20802;-79
2021/10/03 03:18:08;;;;;;;4.27;3.67;;;;;;;;;;5113986;27;20488;-81
2021/10/03 03:20:37;;;;;;;6.30;3.37;;;;;;;;;;5127048;27;20428;-80
2021/10/03 03:23:04;;;;;;;3.60;3.30;;;;;;;;;;5113785;27;20547;-82
2021/10/03 03:25:31;;;;;;;4.63;3.80;;;;;;;;;;5118116;27;20405;-80
2021/10/03 03:27:58;;;;;;;4.27;3.90;;;;;;;;;;5109907;27;20414;-80
2021/10/03 03:30:26;;;;;;;6.10;3.87;;;;;;;;;;5106558;27;20469;-81
2021/10/03 03:32:53;;;;;;;5.60;4.03;;;;;;;;;;5111726;28;20890;-81
2021/10/03 03:35:20;;;;;;;4.40;4.00;;;;;;;;;;5110387;28;20432;-80
2021/10/03 03:37:49;;;;;;;4.33;3.93;;;;;;;;;;5103553;27;20496;-80
2021/10/03 03:40:18;;;;;;;4.27;3.87;;;;;;;;;;5115795;27;20468;-81
2021/10/03 03:42:46;;;;;;;5.43;4.30;;;;;;;;;;5130130;27;20581;-81
2021/10/03 03:45:13;;;;;;;5.30;4.00;;;;;;;;;;5110670;27;20463;-80
2021/10/03 03:47:40;;;;;;;6.83;4.20;;;;;;;;;;5129989;27;20423;-80
2021/10/03 03:50:11;;;;;;;5.10;3.97;;;;;;;;;;5132308;27;20786;-80
2021/10/03 03:52:38;;;;;;;10.17;4.43;;;;;;;;;;5106613;27;20469;-81
2021/10/03 03:55:08;;;;;;;5.90;4.77;;;;;;;;;;5105511;27;20793;-79
2021/10/03 03:57:35;;;;;;;5.30;4.80;;;;;;;;;;5118896;27;20476;-80
2021/10/03 04:00:02;;;;;;;6.47;4.47;;;;;;;;;;5129525;27;20433;-79
2021/10/03 04:02:31;;;;;;;5.30;4.17;;;;;;;;;;5107092;28;20473;-80
2021/10/03 04:04:58;;;;;;;4.93;4.33;;;;;;;;;;5106355;28;20515;-80
2021/10/03 04:07:25;;;;;;;7.97;5.13;;;;;;;;;;5111034;28;20417;-82
2021/10/03 04:09:52;;;;;;;9.43;5.10;;;;;;;;;;5106940;28;20432;-80
2021/10/03 04:12:21;;;;;;;5.10;4.33;;;;;;;;;;5109776;27;20478;-80
2021/10/03 04:14:48;;;;;;;5.00;4.50;;;;;;;;;;5112643;28;20429;-79
2021/10/03 04:17:15;;;;;;;4.70;4.30;;;;;;;;;;5101698;28;21428;-81
2021/10/03 04:19:42;;;;;;;6.67;4.60;;;;;;;;;;5099056;28;20469;-81
2021/10/03 04:22:09;;;;;;;7.53;4.53;;;;;;;;;;5107399;28;20451;-81
2021/10/03 04:24:36;;;;;;;9.17;4.67;;;;;;;;;;5111551;28;20469;-81
2021/10/03 04:27:04;;;;;;;6.27;4.80;;;;;;;;;;5108613;27;20456;-81
2021/10/03 04:29:32;;;;;;;5.03;4.53;;;;;;;;;;5134185;27;20918;-81
2021/10/03 04:32:00;;;;;;;4.80;4.30;;;;;;;;;;5130035;27;20457;-81
2021/10/03 04:34:27;;;;;;;4.37;3.93;;;;;;;;;;5103904;27;20454;-79
2021/10/03 04:36:54;;;;;;;5.03;4.50;;;;;;;;;;5122557;27;20532;-81
2021/10/03 04:39:21;;;;;;;5.70;4.60;;;;;;;;;;5131771;27;20442;-81
2021/10/03 04:41:48;;;;;;;6.07;4.10;;;;;;;;;;5122697;27;20457;-79
2021/10/03 04:44:15;;;;;;;9.03;4.27;;;;;;;;;;5131942;27;20428;-81
2021/10/03 04:46:44;;;;;;;5.33;4.50;;;;;;;;;;5118483;27;20433;-81
2021/10/03 04:49:11;;;;;;;8.03;4.47;;;;;;;;;;5113659;28;20442;-79
2021/10/03 04:51:38;;;;;;;5.60;4.70;;;;;;;;;;5109527;28;20473;-78
2021/10/03 04:54:05;;;;;;;6.63;4.73;;;;;;;;;;5109188;27;20474;-80
2021/10/03 04:56:33;;;;;;;7.43;4.87;;;;;;;;;;5121230;27;20430;-80
2021/10/03 04:59:00;;;;;;;5.30;4.80;;;;;;;;;;5114163;27;20455;-80
2021/10/03 05:01:27;;;;;;;7.27;4.63;;;;;;;;;;5108895;27;20461;-80
2021/10/03 05:03:55;;;;;;;5.07;4.47;;;;;;;;;;5114897;28;20450;-80
2021/10/03 05:06:22;;;;;;;6.60;4.70;;;;;;;;;;5111942;28;20473;-80
2021/10/03 05:08:50;;;;;;;6.50;4.20;;;;;;;;;;5115071;27;20963;-81
2021/10/03 05:11:17;;;;;;;7.00;4.90;;;;;;;;;;5110652;27;21379;-79
2021/10/03 05:13:45;;;;;;;5.70;4.67;;;;;;;;;;5072143;28;20463;-79
2021/10/03 05:16:12;;;;;;;4.20;3.70;;;;;;;;;;5091768;28;20462;-80
2021/10/03 05:18:39;;;;;;;4.87;4.37;;;;;;;;;;5087752;28;20476;-79
2021/10/03 05:21:08;;;;;;;5.73;4.70;;;;;;;;;;5073799;28;20812;-78
2021/10/03 05:23:35;;;;;;;6.20;4.30;;;;;;;;;;5073867;28;20476;-80
2021/10/03 05:26:02;;;;;;;4.53;4.13;;;;;;;;;;5073415;28;20456;-79
2021/10/03 05:28:29;;;;;;;5.73;4.57;;;;;;;;;;5080154;28;20800;-81
2021/10/03 05:30:56;;;;;;;5.07;4.03;;;;;;;;;;5068259;28;20458;-80
2021/10/03 05:33:24;;;;;;;4.50;4.10;;;;;;;;;;5088737;28;20489;-81
2021/10/03 05:35:51;;;;;;;5.57;4.40;;;;;;;;;;5093603;28;20920;-80
2021/10/03 05:38:20;;;;;;;6.50;4.50;;;;;;;;;;5075193;28;20483;-79
2021/10/03 05:40:47;;;;;;;5.43;4.50;;;;;;;;;;5074101;28;20467;-79
2021/10/03 05:43:14;;;;;;;7.37;4.47;;;;;;;;;;5076330;28;20991;-79
2021/10/03 05:45:41;;;;;;;5.73;4.50;;;;;;;;;;5078837;28;20436;-79
2021/10/03 05:48:08;;;;;;;6.30;4.43;;;;;;;;;;5063573;28;20877;-81
2021/10/03 05:50:36;;;;;;;8.00;5.10;;;;;;;;;;5071178;28;20447;-81
2021/10/03 05:53:03;;;;;;;5.13;4.47;;;;;;;;;;5073350;28;20460;-79
2021/10/03 05:55:32;;;;;;;7.23;5.33;;;;;;;;;;5062161;28;20451;-81
2021/10/03 05:57:59;;;;;;;5.87;5.20;;;;;;;;;;5060785;28;20492;-80
2021/10/03 06:00:27;;;;;;;5.60;4.47;;;;;;;;;;5073495;28;20457;-79
2021/10/03 06:02:55;;;;;;;5.23;4.10;;;;;;;;;;5072168;28;20568;-79
2021/10/03 06:05:22;;;;;;;6.60;4.80;;;;;;;;;;5069116;28;20460;-78
2021/10/03 06:07:49;;;;;;;4.50;3.53;;;;;;;;;;5070429;28;20463;-78
2021/10/03 06:10:16;;;;;;;7.60;5.00;;;;;;;;;;5070440;28;20444;-79
2021/10/03 06:12:45;;;;;;;7.47;4.50;;;;;;;;;;5087893;27;20478;-77
2021/10/03 06:15:12;;;;;;;5.20;4.20;;;;;;;;;;5110964;27;21021;-80
2021/10/03 06:17:39;;;;;;;4.70;4.07;;;;;;;;;;5118166;27;20478;-79
2021/10/03 06:20:08;;;;;;;5.10;4.60;;;;;;;;;;5109424;27;20469;-81
2021/10/03 06:22:36;;;;;;;5.13;3.97;;;;;;;;;;5112895;28;20455;-80
2021/10/03 06:25:03;;;;;;;5.53;4.10;;;;;;;;;;5110626;28;20437;-77
2021/10/03 06:27:31;;;;;;;5.30;3.93;;;;;;;;;;5106891;27;20454;-77
2021/10/03 06:30:00;;;;;;;7.57;4.77;;;;;;;;;;5094775;28;20946;-77
2021/10/03 06:32:27;;;;;;;6.20;4.30;;;;;;;;;;5096867;28;20470;-77
2021/10/03 06:34:54;;;;;;;6.63;5.03;;;;;;;;;;5104973;27;20452;-78
2021/10/03 06:37:21;;;;;;;5.57;4.80;;;;;;;;;;5115031;27;20481;-78
2021/10/03 06:39:49;;;;;;;5.27;4.77;;;;;;;;;;5121013;27;20435;-77
2021/10/03 06:42:16;;;;;;;6.33;4.53;;;;;;;;;;5104923;27;20481;-77
2021/10/03 06:44:43;;;;;;;6.33;4.43;;;;;;;;;;5103321;27;20447;-76
2021/10/03 06:47:12;;;;;;;4.70;4.30;;;;;;;;;;5092253;28;20432;-77
2021/10/03 06:49:39;;;;;;;7.90;4.00;;;;;;;;;;5100878;28;20458;-77
2021/10/03 06:52:07;;;;;;;5.23;4.20;;;;;;;;;;5100709;27;20469;-77
2021/10/03 06:54:34;;;;;;;4.20;3.80;;;;;;;;;;5105943;27;20796;-77
2021/10/03 06:57:01;;;;;;;7.90;4.10;;;;;;;;;;5104238;28;20431;-75
2021/10/03 06:59:31;;;;;;;5.27;4.30;;;;;;;;;;5121014;27;20431;-75
2021/10/03 07:01:58;;;;;;;5.63;4.70;;;;;;;;;;5103882;27;20469;-75
2021/10/03 07:04:30;;;;;;;5.67;4.23;;;;;;;;;;5101384;27;20454;-75
2021/10/03 07:06:57;;;;;;;4.97;4.43;;;;;;;;;;5110703;28;21008;-76
2021/10/03 07:09:24;;;;;;;4.97;4.57;;;;;;;;;;5103778;27;20468;-75
2021/10/03 07:11:51;;;;;;;4.97;4.30;;;;;;;;;;5105776;28;20486;-74
2021/10/03 07:14:18;;;;;;;4.77;4.30;;;;;;;;;;5114361;27;20861;-75
2021/10/03 07:16:45;;;;;;;4.67;4.13;;;;;;;;;;5118156;27;20801;-77
2021/10/03 07:19:12;;;;;;;4.87;4.20;;;;;;;;;;5103848;27;20482;-76
2021/10/03 07:21:41;;;;;;;5.70;4.10;;;;;;;;;;5103667;27;20633;-75
2021/10/03 07:24:08;;;;;;;4.90;4.40;;;;;;;;;;5108424;28;20834;-77
2021/10/03 07:26:35;;;;;;;8.20;4.17;;;;;;;;;;5112477;28;20456;-76
2021/10/03 07:29:03;;;;;;;4.83;4.40;;;;;;;;;;5116814;27;20450;-75
2021/10/03 07:31:30;;;;;;;6.67;4.53;;;;;;;;;;5116300;27;21117;-76
2021/10/03 07:33:57;;;;;;;5.10;4.27;;;;;;;;;;5125334;27;20460;-75
2021/10/03 07:36:25;;;;;;;4.60;4.17;;;;;;;;;;5112557;27;20441;-77
2021/10/03 07:38:53;;;;;;;4.63;3.80;;;;;;;;;;5115978;27;20478;-75
2021/10/03 07:41:21;;;;;;;6.53;4.90;;;;;;;;;;5109459;27;20811;-77
2021/10/03 07:43:49;;;;;;;5.47;4.43;;;;;;;;;;5112792;28;20459;-77
2021/10/03 07:46:17;;;;;;;5.30;4.63;;;;;;;;;;5116552;27;20512;-77
2021/10/03 07:48:44;;;;;;;8.00;4.40;;;;;;;;;;5104858;27;20446;-77
2021/10/03 07:51:12;;;;;;;6.03;4.70;;;;;;;;;;5114084;27;20450;-78
2021/10/03 07:53:39;;;;;;;4.53;3.80;;;;;;;;;;5129686;27;20791;-77
2021/10/03 07:56:09;;;;;;;5.83;4.40;;;;;;;;;;5119318;27;20449;-77
2021/10/03 07:58:36;;;;;;;6.43;4.80;;;;;;;;;;5110010;28;22800;-81
2021/10/03 08:01:03;;;;;;;5.43;4.90;;;;;;;;;;5112974;27;20457;-82
2021/10/03 08:03:30;;;;;;;6.10;4.67;;;;;;;;;;5107078;27;21059;-78
2021/10/03 08:05:57;;;;;;;8.47;4.73;;;;;;;;;;5091826;28;20920;-79
2021/10/03 08:08:25;;;;;;;8.30;4.30;;;;;;;;;;5094847;28;20451;-78
2021/10/03 08:10:52;;;;;;;5.70;4.23;;;;;;;;;;5103901;27;20458;-80
2021/10/03 08:13:20;;;;;;;4.73;4.20;;;;;;;;;;5100770;28;20489;-80
2021/10/03 08:15:47;;;;;;;4.60;4.10;;;;;;;;;;5113288;28;20453;-78
2021/10/03 08:18:15;;;;;;;6.40;4.20;;;;;;;;;;5113083;27;21018;-78
2021/10/03 08:20:42;;;;;;;5.07;4.57;;;;;;;;;;5097865;28;20496;-77
2021/10/03 08:23:10;;;;;;;4.73;4.10;;;;;;;;;;5092940;28;20551;-80
2021/10/03 08:25:37;;;;;;;5.30;4.80;;;;;;;;;;5107779;27;20461;-79
2021/10/03 08:28:05;;;;;;;4.40;4.00;;;;;;;;;;5125172;28;20426;-80
2021/10/03 08:30:33;;;;;;;7.67;5.20;;;;;;;;;;5109802;27;20451;-80
2021/10/03 08:33:01;;;;;;;6.73;4.07;;;;;;;;;;5121925;27;20461;-81
2021/10/03 08:35:28;;;;;;;5.30;4.80;;;;;;;;;;5128058;27;20788;-79
2021/10/03 08:37:55;;;;;;;5.37;4.20;;;;;;;;;;5115211;27;20488;-80
2021/10/03 08:40:22;;;;;;;6.70;4.67;;;;;;;;;;5110681;28;20919;-80
2021/10/03 08:42:49;;;;;;;7.20;4.40;;;;;;;;;;5102694;27;20466;-82
2021/10/03 08:45:17;;;;;;;5.50;4.40;;;;;;;;;;5105409;27;20459;-81
2021/10/03 08:47:45;;;;;;;4.43;3.77;;;;;;;;;;5110503;27;20458;-81
2021/10/03 08:50:14;;;;;;;4.80;4.20;;;;;;;;;;5104691;27;20945;-78
2021/10/03 08:52:42;;;;;;;6.00;3.97;;;;;;;;;;5121851;27;20480;-80
2021/10/03 08:55:10;;;;;;;5.10;4.47;;;;;;;;;;5119293;27;20441;-79
2021/10/03 08:57:37;;;;;;;4.60;4.20;;;;;;;;;;5116846;27;20454;-79
2021/10/03 09:00:06;;;;;;;6.53;4.40;;;;;;;;;;5126707;27;20433;-79
2021/10/03 09:02:52;;;;;;;4.93;4.43;;;;;;;;;;5115977;27;21007;-81
2021/10/03 09:05:21;;;;;;;5.10;4.40;;;;;;;;;;5124906;27;20917;-82
2021/10/03 09:07:58;;;;;;;6.17;4.37;;;;;;;;;;5112462;27;20473;-81
2021/10/03 09:10:25;;;;;;;5.00;4.50;;;;;;;;;;5121049;27;20785;-79
2021/10/03 09:12:56;;;;;;;4.83;4.17;;;;;;;;;;5118981;27;20481;-77
2021/10/03 09:15:29;;;;;;;4.33;3.80;;;;;;;;;;5115416;27;20459;-80
2021/10/03 09:17:57;;;;;;;4.53;4.13;;;;;;;;;;5118066;27;20449;-78
2021/10/03 09:20:26;;;;;;;5.10;4.40;;;;;;;;;;5105238;27;20460;-81
2021/10/03 09:22:55;;;;;;;6.63;3.90;;;;;;;;;;5114400;27;20470;-79
2021/10/03 09:25:37;;;;;;;6.10;4.43;;;;;;;;;;5130242;27;20814;-78
2021/10/03 09:28:05;;;;;;;5.10;4.60;;;;;;;;;;5114394;27;20458;-78
2021/10/03 09:30:32;;;;;;;7.80;4.40;;;;;;;;;;5113774;28;20481;-80
2021/10/03 09:33:01;;;;;;;4.97;4.40;;;;;;;;;;5112556;27;20466;-78
2021/10/03 09:35:30;;;;;;;4.90;4.43;;;;;;;;;;5118973;27;20764;-80
2021/10/03 09:37:57;;;;;;;6.03;4.50;;;;;;;;;;5113195;27;21061;-78
2021/10/03 09:40:25;;;;;;;5.00;4.50;;;;;;;;;;5103995;27;20824;-77
2021/10/03 09:42:53;;;;;;;4.87;3.90;;;;;;;;;;5105591;28;20463;-78
2021/10/03 09:45:22;;;;;;;5.47;4.47;;;;;;;;;;5092543;28;20449;-80
2021/10/03 09:48:01;;;;;;;5.10;4.60;;;;;;;;;;5100305;27;20501;-79
2021/10/03 09:50:30;;;;;;;5.23;4.73;;;;;;;;;;5111211;27;20453;-80
2021/10/03 09:52:58;;;;;;;5.40;4.90;;;;;;;;;;5118020;27;20461;-78
2021/10/03 09:55:26;;;;;;;5.80;4.17;;;;;;;;;;5120133;27;20469;-79
2021/10/03 09:57:54;;;;;;;4.40;4.00;;;;;;;;;;5107092;28;20477;-79
2021/10/03 10:00:24;;;;;;;5.27;4.20;;;;;;;;;;5093398;28;20447;-81
2021/10/03 10:02:52;;;;;;;7.90;4.73;;;;;;;;;;5098540;27;20496;-78
2021/10/03 10:05:21;;;;;;;5.47;4.90;;;;;;;;;;5106824;27;20462;-79
2021/10/03 10:07:49;;;;;;;6.07;5.10;;;;;;;;;;5116107;27;20490;-80
2021/10/03 10:10:19;;;;;;;5.30;4.47;;;;;;;;;;5112774;27;20464;-79
2021/10/03 10:12:48;;;;;;;4.83;4.33;;;;;;;;;;5130250;27;20473;-82
2021/10/03 10:15:15;;;;;;;5.20;4.50;;;;;;;;;;5105053;27;20462;-81
2021/10/03 10:17:43;;;;;;;4.10;3.70;;;;;;;;;;5100772;27;20442;-77
2021/10/03 10:20:27;;;;;;;11.20;4.60;;;;;;;;;;5115869;27;20734;-85
2021/10/03 10:22:56;;;;;;;5.00;4.43;;;;;;;;;;5112710;27;20472;-81
2021/10/03 10:25:38;;;;;;;7.97;4.90;;;;;;;;;;5118871;27;20915;-79
2021/10/03 10:28:07;;;;;;;5.27;4.17;;;;;;;;;;5095826;27;21181;-76
2021/10/03 10:30:36;;;;;;;5.60;4.10;;;;;;;;;;5109563;28;20447;-77
2021/10/03 10:33:10;;;;;;;4.57;4.07;;;;;;;;;;5113765;28;20798;-76
2021/10/03 10:35:37;;;;;;;7.00;4.47;;;;;;;;;;5127884;27;20437;-76
2021/10/03 10:38:20;;;;;;;5.43;4.20;;;;;;;;;;5108038;27;20923;-77
2021/10/03 10:40:50;;;;;;;5.67;4.97;;;;;;;;;;5106984;27;20454;-77
2021/10/03 10:43:32;;;;;;;5.40;4.90;;;;;;;;;;5103658;27;20561;-77
2021/10/03 10:45:59;;;;;;;5.03;4.53;;;;;;;;;;5116854;27;20505;-77
2021/10/03 10:48:27;;;;;;;5.63;4.57;;;;;;;;;;5115974;27;20434;-78
2021/10/03 10:51:09;;;;;;;5.43;4.27;;;;;;;;;;5106485;27;21136;-77
2021/10/03 10:53:38;;;;;;;4.60;4.20;;;;;;;;;;5111309;28;20450;-77
2021/10/03 10:56:07;;;;;;;5.53;4.43;;;;;;;;;;5111758;28;20430;-76
2021/10/03 10:58:35;;;;;;;5.70;4.97;;;;;;;;;;5103565;27;20475;-76
2021/10/03 11:01:03;;;;;;;6.60;4.33;;;;;;;;;;5110209;27;20458;-76
2021/10/03 11:03:49;;;;;;;5.33;4.77;;;;;;;;;;5102098;27;21970;-77
2021/10/03 11:06:36;;;;;;;5.00;4.50;;;;;;;;;;5116314;27;20446;-77
2021/10/03 11:09:04;;;;;;;5.33;4.30;;;;;;;;;;5111450;27;20442;-77
2021/10/03 11:11:34;;;;;;;4.90;4.20;;;;;;;;;;5109291;27;20454;-78
2021/10/03 11:14:02;;;;;;;5.30;4.80;;;;;;;;;;5132084;27;20461;-77
2021/10/03 11:16:30;;;;;;;4.70;4.23;;;;;;;;;;5109551;27;20481;-76
2021/10/03 11:18:58;;;;;;;5.43;3.80;;;;;;;;;;5099318;27;20487;-78
2021/10/03 11:21:26;;;;;;;4.93;4.40;;;;;;;;;;5103222;27;20460;-77
2021/10/03 11:23:54;;;;;;;5.53;4.17;;;;;;;;;;5099998;28;20474;-76
2021/10/03 11:26:23;;;;;;;5.97;4.50;;;;;;;;;;5101664;27;20531;-77
2021/10/03 11:28:52;;;;;;;6.27;4.60;;;;;;;;;;5112009;27;20668;-77
2021/10/03 11:31:34;;;;;;;5.50;4.60;;;;;;;;;;5113890;27;20824;-78
2021/10/03 11:34:02;;;;;;;5.50;4.40;;;;;;;;;;5125827;27;20457;-78
2021/10/03 11:36:29;;;;;;;4.53;4.00;;;;;;;;;;5112564;27;20458;-77
2021/10/03 11:38:59;;;;;;;6.63;4.20;;;;;;;;;;5100915;27;20478;-78
2021/10/03 11:41:26;;;;;;;4.57;4.17;;;;;;;;;;5107610;27;20457;-80
2021/10/03 11:43:55;;;;;;;4.93;4.23;;;;;;;;;;5100285;27;20474;-76
2021/10/03 11:46:22;;;;;;;3.87;3.50;;;;;;;;;;5107213;27;20454;-77
2021/10/03 11:48:53;;;;;;;5.47;4.60;;;;;;;;;;5114194;28;20458;-78
2021/10/03 11:51:20;;;;;;;4.63;4.20;;;;;;;;;;5116739;27;20462;-76
2021/10/03 11:53:49;;;;;;;4.70;4.20;;;;;;;;;;5108326;27;20470;-76
2021/10/03 11:56:19;;;;;;;3.60;3.30;;;;;;;;;;5104944;28;20450;-78
2021/10/03 11:58:49;;;;;;;6.53;4.60;;;;;;;;;;5111837;28;20875;-78
2021/10/03 12:01:17;;;;;;;4.70;4.30;;;;;;;;;;5128864;27;20463;-77
2021/10/03 12:03:48;;;;;;;4.00;3.63;;;;;;;;;;5098748;27;20578;-79
2021/10/03 12:06:19;;;;;;;4.47;4.07;;;;;;;;;;5114070;27;20807;-80
2021/10/03 12:08:47;;;;;;;3.93;3.63;;;;;;;;;;5117260;27;20521;-79
2021/10/03 12:11:14;;;;;;;5.17;4.43;;;;;;;;;;5102346;27;20462;-80
2021/10/03 12:13:56;;;;;;;5.23;4.73;;;;;;;;;;5101824;28;20561;-79
2021/10/03 12:16:24;;;;;;;5.33;3.93;;;;;;;;;;5096791;28;20566;-80
2021/10/03 12:18:53;;;;;;;5.10;4.60;;;;;;;;;;5116019;28;20450;-79
2021/10/03 12:21:22;;;;;;;4.70;4.20;;;;;;;;;;5102311;28;20485;-79
2021/10/03 12:23:54;;;;;;;6.10;4.30;;;;;;;;;;5092995;28;20474;-77
2021/10/03 12:26:22;;;;;;;3.93;3.50;;;;;;;;;;5105890;28;20477;-78
2021/10/03 12:28:54;;;;;;;4.37;3.97;;;;;;;;;;5113913;28;20938;-76
2021/10/03 12:31:36;;;;;;;4.20;3.80;;;;;;;;;;5106831;27;20938;-77
2021/10/03 12:34:04;;;;;;;4.47;3.73;;;;;;;;;;5100285;28;20474;-79
2021/10/03 12:36:32;;;;;;;4.80;4.30;;;;;;;;;;5114599;28;20437;-78
2021/10/03 12:38:59;;;;;;;5.40;4.27;;;;;;;;;;5109428;28;20454;-78
2021/10/03 12:41:26;;;;;;;4.03;3.40;;;;;;;;;;5106897;28;20462;-77
2021/10/03 12:43:56;;;;;;;5.10;4.20;;;;;;;;;;5102093;28;20497;-77
2021/10/03 12:46:23;;;;;;;4.30;3.17;;;;;;;;;;5111452;28;20435;-76
2021/10/03 12:48:50;;;;;;;5.20;3.80;;;;;;;;;;5101783;28;20436;-77
2021/10/03 12:51:19;;;;;;;5.60;4.00;;;;;;;;;;5108207;27;20459;-77
2021/10/03 12:53:46;;;;;;;4.03;3.63;;;;;;;;;;5116002;28;20469;-76
2021/10/03 12:56:13;;;;;;;5.00;3.30;;;;;;;;;;5108697;28;20462;-75
2021/10/03 12:58:42;;;;;;;4.77;4.00;;;;;;;;;;5120350;28;20668;-76
2021/10/03 13:01:09;;;;;;;3.53;2.90;;;;;;;;;;5117581;27;20531;-77
2021/10/03 13:03:38;;;;;;;6.30;4.53;;;;;;;;;;5109789;28;20477;-76
2021/10/03 13:06:05;;;;;;;4.17;3.73;;;;;;;;;;5105118;28;20520;-77
2021/10/03 13:08:34;;;;;;;5.40;3.50;;;;;;;;;;5115284;27;20426;-76
2021/10/03 13:11:01;;;;;;;3.10;2.90;;;;;;;;;;5092305;27;21082;-78
2021/10/03 13:13:28;;;;;;;3.30;3.00;;;;;;;;;;5101682;28;21146;-78
2021/10/03 13:15:56;;;;;;;3.60;3.30;;;;;;;;;;5131098;27;20440;-78
2021/10/03 13:18:23;;;;;;;3.83;3.27;;;;;;;;;;5113193;28;20454;-78
2021/10/03 13:20:51;;;;;;;4.03;3.20;;;;;;;;;;5109206;27;20490;-81
2021/10/03 13:23:18;;;;;;;3.13;2.83;;;;;;;;;;5113953;27;20468;-80
2021/10/03 13:25:47;;;;;;;4.00;3.17;;;;;;;;;;5106237;27;20446;-76
2021/10/03 13:28:14;;;;;;;5.20;2.90;;;;;;;;;;5103329;27;20463;-78
2021/10/03 13:30:41;;;;;;;3.90;3.10;;;;;;;;;;5093294;28;20428;-77
2021/10/03 13:33:09;;;;;;;3.47;3.00;;;;;;;;;;5104471;27;20470;-79
2021/10/03 13:35:41;;;;;;;3.50;2.53;;;;;;;;;;5114125;27;20444;-76
2021/10/03 13:38:09;;;;;;;2.80;2.60;;;;;;;;;;5107528;27;20457;-77
2021/10/03 13:40:37;;;;;;;2.77;2.57;;;;;;;;;;5107620;27;20490;-79
2021/10/03 13:43:06;;;;;;;2.97;2.77;;;;;;;;;;5114391;27;20454;-76
2021/10/03 13:45:33;;;;;;;2.60;2.40;;;;;;;;;;5109134;27;20458;-79
2021/10/03 13:48:01;;;;;;;4.13;2.87;;;;;;;;;;5111756;27;20454;-77
2021/10/03 13:50:28;;;;;;;3.80;2.33;;;;;;;;;;5114361;27;20949;-77
2021/10/03 13:52:55;;;;;;;3.93;2.30;;;;;;;;;;5110602;27;20469;-77
2021/10/03 13:55:23;;;;;;;2.40;2.20;;;;;;;;;;5105674;27;20450;-76
2021/10/03 13:57:50;;;;;;;2.27;2.07;;;;;;;;;;5103646;27;20462;-77
2021/10/03 14:00:18;;;;;;;3.93;2.30;;;;;;;;;;5109885;27;20478;-77
2021/10/03 14:02:46;;;;;;;2.20;1.80;;;;;;;;;;5113691;28;20494;-78
2021/10/03 14:05:14;;;;;;;2.40;2.20;;;;;;;;;;5120822;27;20804;-75
2021/10/03 14:07:42;;;;;;;2.53;2.13;;;;;;;;;;5105941;27;20445;-76
2021/10/03 14:10:10;;;;;;;2.83;2.33;;;;;;;;;;5106284;27;20441;-76
2021/10/03 14:12:38;;;;;;;2.27;1.93;;;;;;;;;;5105077;27;20474;-77
2021/10/03 14:15:07;;;;;;;2.73;1.87;;;;;;;;;;5106455;27;20458;-81
2021/10/03 14:17:35;;;;;;;2.53;2.00;;;;;;;;;;5104786;27;20458;-77
2021/10/03 14:20:03;;;;;;;2.53;1.93;;;;;;;;;;5113381;28;20467;-77
2021/10/03 14:22:30;;;;;;;1.70;1.50;;;;;;;;;;5115589;27;20466;-80
2021/10/03 14:24:57;;;;;;;2.13;1.93;;;;;;;;;;5111101;27;20486;-77
2021/10/03 14:27:24;;;;;;;2.03;1.70;;;;;;;;;;5116608;27;20461;-76
2021/10/03 14:29:52;;;;;;;1.90;1.80;;;;;;;;;;5103536;27;20442;-76
2021/10/03 14:32:19;;;;;;;1.40;1.30;;;;;;;;;;5114210;27;20481;-76
2021/10/03 14:34:47;;;;;;;1.70;1.60;;;;;;;;;;5102240;27;20453;-75
2021/10/03 14:37:14;;;;;;;2.43;1.60;;;;;;;;;;5113089;27;20461;-76
2021/10/03 14:39:42;;;;;;;3.67;1.80;;;;;;;;;;5118393;27;20433;-77
2021/10/03 14:42:09;;;;;;;2.37;1.50;;;;;;;;;;5112157;27;20483;-77
2021/10/03 14:44:36;;;;;;;2.07;1.33;;;;;;;;;;5109946;27;20434;-77
2021/10/03 14:47:04;;;;;;;1.47;1.33;;;;;;;;;;5100070;27;20462;-78
2021/10/03 14:49:33;;;;;;;1.77;1.30;;;;;;;;;;5094710;27;20458;-77